Time;durP1;ratioP1;P1;durP2;ratioP2;P2;SDS_P1;SDS_P2;PMS_P1;PMS_P2;Temp;Humidity;BMP_temperature;BMP_pressure;BME280_temperature;BME280_humidity;BME280_pressure;Samples;Min_cycle;Max_cycle;Signal;HPM_P1;HPM_P2
2022/10/15 00:01:16;;;;;;;34.03;21.75;;;;;;;11.56;67.76;100264.22;4910975;29;20057;-74
2022/10/15 00:03:44;;;;;;;47.75;22.23;;;;;;;11.63;67.67;100267.88;4913802;29;20052;-74
2022/10/15 00:06:14;;;;;;;30.75;21.52;;;;;;;11.38;69.14;100267.19;4913215;29;20063;-74
2022/10/15 00:08:41;;;;;;;31.10;22.27;;;;;;;11.40;69.55;100265.97;4914153;29;20055;-74
2022/10/15 00:11:14;;;;;;;35.72;22.73;;;;;;;11.12;70.63;100260.25;4913549;29;20500;-74
2022/10/15 00:13:41;;;;;;;39.58;22.55;;;;;;;11.32;70.29;100255.28;4914715;29;20047;-74
2022/10/15 00:16:11;;;;;;;31.08;21.90;;;;;;;11.28;71.08;100243.22;4913783;29;20544;-74
2022/10/15 00:18:39;;;;;;;35.30;22.50;;;;;;;11.46;70.66;100234.91;4914800;29;20052;-73
2022/10/15 00:21:10;;;;;;;33.20;23.73;;;;;;;11.36;70.93;100236.97;4915170;29;20058;-74
2022/10/15 00:23:37;;;;;;;39.80;22.80;;;;;;;11.54;71.27;100234.00;4914929;29;20501;-74
2022/10/15 00:26:12;;;;;;;36.20;23.65;;;;;;;11.56;71.10;100231.97;4914676;29;20052;-74
2022/10/15 00:28:39;;;;;;;39.40;23.33;;;;;;;11.35;72.00;100225.41;4914885;29;20044;-74
2022/10/15 00:31:08;;;;;;;35.83;23.83;;;;;;;11.11;72.87;100228.22;4914322;29;20567;-74
2022/10/15 00:33:36;;;;;;;38.88;24.35;;;;;;;11.38;72.53;100227.72;4914700;29;20496;-74
2022/10/15 00:36:06;;;;;;;36.13;24.73;;;;;;;11.19;72.71;100226.31;4914384;29;20392;-74
2022/10/15 00:38:34;;;;;;;37.42;25.50;;;;;;;11.38;72.87;100226.91;4914016;29;20048;-74
2022/10/15 00:41:01;;;;;;;36.25;24.80;;;;;;;11.39;72.92;100221.34;4914026;29;20060;-73
2022/10/15 00:43:42;;;;;;;37.28;24.88;;;;;;;11.09;73.55;100220.31;4904371;29;20063;-73
2022/10/15 00:46:16;;;;;;;40.50;25.17;;;;;;;11.31;73.83;100223.22;4913564;29;20052;-73
2022/10/15 00:48:44;;;;;;;35.60;26.15;;;;;;;11.46;73.21;100221.47;4914163;29;20103;-74
2022/10/15 00:51:11;;;;;;;37.30;26.23;;;;;;;11.04;75.13;100221.88;4914086;29;20075;-74
2022/10/15 00:53:37;;;;;;;37.25;26.35;;;;;;;11.43;73.98;100217.28;4907725;29;20048;-73
2022/10/15 00:56:04;;;;;;;38.83;25.77;;;;;;;11.14;74.96;100212.59;4914038;29;20056;-74
2022/10/15 00:58:31;;;;;;;36.55;26.25;;;;;;;11.23;74.75;100199.94;4913487;29;20198;-73
2022/10/15 01:00:58;;;;;;;37.33;25.67;;;;;;;11.29;74.66;100203.78;4896822;29;20055;-74
2022/10/15 01:03:25;;;;;;;42.40;26.95;;;;;;;11.27;75.03;100187.84;4913875;29;20059;-71
2022/10/15 01:09:41;;;;;;;47.33;27.15;;;;;;;11.43;74.97;100176.16;4875259;29;20055;-74
2022/10/15 01:12:27;;;;;;;37.47;26.88;;;;;;;11.34;75.25;100169.16;4875633;29;20060;-73
2022/10/15 01:15:14;;;;;;;38.92;27.90;;;;;;;10.96;76.75;100169.91;4871340;29;20064;-74
2022/10/15 01:17:46;;;;;;;37.58;27.75;;;;;;;10.75;77.86;100166.97;4875662;29;20394;-74
2022/10/15 01:20:31;;;;;;;42.28;27.98;;;;;;;11.22;75.97;100172.25;4876542;29;20420;-74
2022/10/15 01:23:04;;;;;;;45.00;29.52;;;;;;;11.28;76.07;100165.34;4876747;29;20056;-74
2022/10/15 01:25:41;;;;;;;49.35;28.67;;;;;;;11.49;75.63;100167.38;4876000;29;20045;-73
2022/10/15 01:28:41;;;;;;;45.35;29.95;;;;;;;11.34;75.79;100164.63;4875665;29;20064;-74
2022/10/15 01:31:28;;;;;;;42.38;28.90;;;;;;;11.29;76.13;100156.28;4875209;29;20072;-74
2022/10/15 01:34:21;;;;;;;43.53;29.88;;;;;;;11.49;75.58;100155.81;4876697;29;20075;-71
2022/10/15 01:37:15;;;;;;;56.30;37.75;;;;;;;11.25;76.16;100154.13;4866591;29;20049;-74
2022/10/15 01:39:51;;;;;;;44.28;31.45;;;;;;;11.42;75.89;100156.53;4876084;29;20477;-73
2022/10/15 01:42:28;;;;;;;44.90;31.40;;;;;;;11.56;74.75;100151.38;4875322;29;20060;-73
2022/10/15 01:44:59;;;;;;;42.78;30.80;;;;;;;11.40;75.52;100147.78;4876200;29;20053;-73
2022/10/15 01:47:34;;;;;;;52.70;32.15;;;;;;;11.42;75.92;100144.94;4876551;29;20052;-73
2022/10/15 01:50:04;;;;;;;46.10;30.80;;;;;;;11.33;76.44;100141.47;4875803;29;20057;-73
2022/10/15 01:52:36;;;;;;;52.35;30.33;;;;;;;11.38;76.07;100144.47;4875059;29;20430;-75
2022/10/15 01:55:06;;;;;;;45.65;30.20;;;;;;;11.19;76.78;100137.72;4875659;29;20063;-73
2022/10/15 01:57:33;;;;;;;47.53;32.15;;;;;;;11.53;75.67;100141.81;4876058;29;20052;-74
2022/10/15 02:00:03;;;;;;;47.67;30.60;;;;;;;11.31;76.35;100132.78;4874741;29;20056;-73
2022/10/15 02:02:29;;;;;;;50.03;30.77;;;;;;;11.37;76.60;100126.66;4876149;29;20053;-73
2022/10/15 02:04:56;;;;;;;44.67;31.67;;;;;;;11.22;76.34;100128.47;4875431;29;20053;-74
2022/10/15 02:07:34;;;;;;;52.00;32.42;;;;;;;10.97;78.05;100120.59;4886608;29;20052;-74
2022/10/15 02:10:19;;;;;;;49.35;32.20;;;;;;;11.09;77.33;100129.06;4912536;29;20052;-74
2022/10/15 02:13:11;;;;;;;52.70;32.30;;;;;;;11.25;77.09;100128.13;4912751;29;20154;-74
2022/10/15 02:15:47;;;;;;;51.58;33.35;;;;;;;11.47;76.01;100126.44;4899588;29;20074;-73
2022/10/15 02:18:19;;;;;;;52.17;32.78;;;;;;;11.33;75.79;100128.03;4913355;29;20058;-74
2022/10/15 02:20:57;;;;;;;52.13;33.67;;;;;;;11.47;76.36;100126.44;4913274;29;20501;-74
2022/10/15 02:23:38;;;;;;;46.97;33.35;;;;;;;11.40;76.35;100130.84;4912840;29;20048;-73
2022/10/15 02:26:09;;;;;;;51.08;32.90;;;;;;;11.40;76.39;100120.94;4911840;29;20056;-74
2022/10/15 02:28:39;;;;;;;53.80;32.70;;;;;;;11.36;76.41;100121.50;4912829;29;20059;-74
2022/10/15 02:31:09;;;;;;;48.88;33.30;;;;;;;11.39;76.35;100124.66;4913133;29;20087;-74
2022/10/15 02:33:37;;;;;;;46.42;31.90;;;;;;;11.50;76.16;100125.25;4913409;29;20507;-74
2022/10/15 02:36:04;;;;;;;48.45;34.15;;;;;;;11.56;75.67;100128.03;4913456;29;20052;-74
2022/10/15 02:38:33;;;;;;;47.63;32.33;;;;;;;11.37;75.97;100121.28;4913553;29;20059;-74
2022/10/15 02:41:00;;;;;;;48.30;33.42;;;;;;;11.61;75.16;100120.25;4911413;29;20052;-74
2022/10/15 02:43:26;;;;;;;45.95;31.92;;;;;;;11.37;76.18;100112.41;4905909;29;20075;-73
2022/10/15 02:45:53;;;;;;;53.95;32.35;;;;;;;11.43;75.90;100104.47;4914499;29;20048;-74
2022/10/15 02:48:19;;;;;;;51.38;32.70;;;;;;;11.53;75.69;100106.91;4913925;29;20048;-73
2022/10/15 02:50:45;;;;;;;50.72;31.48;;;;;;;11.54;75.36;100110.41;4906348;29;20058;-74
2022/10/15 02:53:12;;;;;;;48.60;31.88;;;;;;;11.36;75.88;100116.13;4912873;29;20130;-73
2022/10/15 02:55:38;;;;;;;49.35;32.22;;;;;;;11.51;75.73;100106.25;4913300;29;20048;-75
2022/10/15 02:58:05;;;;;;;48.00;31.17;;;;;;;11.54;75.31;100118.47;4905141;29;20056;-72
2022/10/15 03:00:31;;;;;;;47.95;32.03;;;;;;;11.44;75.54;100105.28;4913498;29;20511;-74
2022/10/15 03:02:58;;;;;;;50.05;32.72;;;;;;;11.51;75.81;100116.16;4913768;29;20052;-74
2022/10/15 03:05:24;;;;;;;49.38;31.10;;;;;;;11.43;75.92;100106.31;4917602;29;20054;-74
2022/10/15 03:07:51;;;;;;;52.88;32.42;;;;;;;11.52;75.62;100102.56;4916887;29;20103;-74
2022/10/15 03:10:17;;;;;;;46.47;31.80;;;;;;;11.36;76.08;100106.22;4916447;29;20048;-74
2022/10/15 03:12:44;;;;;;;45.90;32.05;;;;;;;11.29;76.16;100107.94;4916010;29;20051;-73
2022/10/15 03:15:11;;;;;;;45.58;31.13;;;;;;;11.22;76.51;100104.31;4915632;29;20488;-73
2022/10/15 03:17:37;;;;;;;49.38;31.58;;;;;;;11.22;76.68;100102.44;4915956;29;20052;-74
2022/10/15 03:20:04;;;;;;;47.88;31.15;;;;;;;11.31;76.85;100103.25;4916134;29;20393;-73
2022/10/15 03:22:31;;;;;;;44.45;32.10;;;;;;;11.30;76.16;100106.91;4915756;29;20059;-74
2022/10/15 03:24:57;;;;;;;46.90;31.10;;;;;;;11.34;76.63;100094.78;4916702;29;20405;-73
2022/10/15 03:27:24;;;;;;;47.83;31.25;;;;;;;11.36;75.77;100095.47;4916091;29;20055;-73
2022/10/15 03:29:51;;;;;;;43.60;29.63;;;;;;;11.44;75.89;100084.63;4915462;29;20109;-74
2022/10/15 03:32:17;;;;;;;46.25;30.35;;;;;;;11.11;77.14;100084.09;4915588;29;20056;-74
2022/10/15 03:34:44;;;;;;;48.92;31.42;;;;;;;11.20;76.54;100082.16;4916044;29;20107;-74
2022/10/15 03:37:10;;;;;;;50.15;30.92;;;;;;;11.25;76.49;100085.16;4915061;29;20059;-74
2022/10/15 03:39:37;;;;;;;45.25;30.48;;;;;;;11.27;76.62;100080.44;4907145;29;20054;-73
2022/10/15 03:42:03;;;;;;;49.30;32.47;;;;;;;11.45;75.91;100089.03;4914919;29;20048;-73
2022/10/15 03:44:30;;;;;;;50.80;32.63;;;;;;;11.48;75.82;100087.78;4915082;29;20051;-72
2022/10/15 03:46:56;;;;;;;46.90;31.20;;;;;;;11.38;75.58;100085.38;4916063;29;20060;-73
2022/10/15 03:49:23;;;;;;;42.05;29.27;;;;;;;11.37;75.94;100088.25;4915395;29;20509;-74
2022/10/15 03:51:49;;;;;;;47.05;30.52;;;;;;;11.44;75.63;100084.63;4915948;29;20520;-74
2022/10/15 03:54:16;;;;;;;45.72;30.90;;;;;;;11.43;75.40;100091.03;4914711;29;20048;-74
2022/10/15 03:56:42;;;;;;;57.80;31.20;;;;;;;11.11;76.49;100086.78;4915021;29;20505;-73
2022/10/15 03:59:09;;;;;;;49.17;30.73;;;;;;;11.26;75.82;100086.00;4914656;29;20048;-73
2022/10/15 04:01:35;;;;;;;46.28;30.17;;;;;;;11.04;77.28;100088.50;4897987;29;20068;-72
2022/10/15 04:04:02;;;;;;;47.35;31.17;;;;;;;11.18;77.00;100081.53;4915600;29;20060;-74
2022/10/15 04:06:29;;;;;;;48.25;29.92;;;;;;;11.18;76.75;100089.59;4915321;29;20055;-74
2022/10/15 04:08:55;;;;;;;48.80;31.45;;;;;;;11.05;77.01;100082.13;4916005;29;20468;-73
2022/10/15 04:11:22;;;;;;;47.83;31.20;;;;;;;11.19;76.66;100084.00;4914673;29;20048;-74
2022/10/15 04:13:49;;;;;;;47.28;31.23;;;;;;;11.39;75.82;100087.03;4914018;29;20052;-74
2022/10/15 04:16:16;;;;;;;47.78;31.13;;;;;;;11.14;76.60;100090.97;4915089;29;20055;-74
2022/10/15 04:18:42;;;;;;;44.33;30.15;;;;;;;11.16;76.76;100083.53;4905641;29;20048;-74
2022/10/15 04:21:10;;;;;;;46.17;30.90;;;;;;;11.20;76.46;100093.72;4913236;29;20059;-74
2022/10/15 04:23:36;;;;;;;44.88;30.92;;;;;;;10.99;77.15;100091.72;4914121;29;20075;-73
2022/10/15 04:26:05;;;;;;;48.95;31.13;;;;;;;10.92;77.75;100092.59;4914755;29;20056;-74
2022/10/15 04:28:32;;;;;;;46.67;29.48;;;;;;;11.31;76.33;100097.00;4914521;29;20238;-73
2022/10/15 04:31:00;;;;;;;44.38;28.85;;;;;;;11.19;76.65;100093.94;4915416;29;20055;-74
2022/10/15 04:33:27;;;;;;;49.83;30.77;;;;;;;10.99;76.78;100097.06;4915233;29;20048;-73
2022/10/15 04:36:06;;;;;;;46.58;29.20;;;;;;;11.37;76.23;100105.19;4914561;29;20500;-74
2022/10/15 04:38:33;;;;;;;44.67;30.20;;;;;;;11.35;76.07;100098.34;4914312;29;20415;-74
2022/10/15 04:41:02;;;;;;;43.75;28.38;;;;;;;11.28;75.98;100097.41;4915108;29;20151;-74
2022/10/15 04:43:29;;;;;;;43.53;27.73;;;;;;;11.36;75.90;100098.16;4914335;29;20071;-74
2022/10/15 04:45:57;;;;;;;44.33;26.98;;;;;;;11.33;75.73;100101.19;4915248;29;20067;-74
2022/10/15 04:48:26;;;;;;;41.30;27.55;;;;;;;11.42;75.62;100099.28;4914751;29;20515;-74
2022/10/15 04:50:52;;;;;;;41.13;26.42;;;;;;;11.38;75.55;100100.66;4914453;29;20388;-73
2022/10/15 04:53:19;;;;;;;44.30;26.67;;;;;;;11.55;75.39;100104.03;4913700;29;20052;-74
2022/10/15 04:55:46;;;;;;;37.47;26.15;;;;;;;11.44;75.81;100106.13;4914609;29;20078;-73
2022/10/15 04:58:12;;;;;;;39.28;25.73;;;;;;;11.59;75.45;100106.19;4914079;29;20092;-74
2022/10/15 05:00:39;;;;;;;42.67;26.50;;;;;;;11.59;75.29;100110.72;4914070;29;20059;-74
2022/10/15 05:03:06;;;;;;;38.40;25.35;;;;;;;11.47;75.05;100110.31;4914198;29;20056;-74
2022/10/15 05:05:32;;;;;;;38.22;25.05;;;;;;;11.50;75.32;100107.25;4913535;29;20062;-73
2022/10/15 05:08:02;;;;;;;33.75;24.70;;;;;;;11.38;75.82;100101.50;4914548;29;20424;-72
2022/10/15 05:10:29;;;;;;;36.28;24.40;;;;;;;11.46;75.62;100103.28;4913228;29;20083;-72
2022/10/15 05:12:55;;;;;;;37.38;24.10;;;;;;;11.45;75.55;100102.44;4914527;29;20059;-73
2022/10/15 05:15:24;;;;;;;40.35;24.42;;;;;;;11.46;75.37;100101.41;4913627;29;20512;-73
2022/10/15 05:17:51;;;;;;;33.67;23.65;;;;;;;11.56;75.14;100103.84;4913988;29;20071;-73
2022/10/15 05:20:18;;;;;;;35.90;23.00;;;;;;;11.40;75.20;100099.44;4909808;29;20056;-74
2022/10/15 05:22:44;;;;;;;36.80;23.02;;;;;;;11.45;75.29;100107.00;4889499;29;20063;-72
2022/10/15 05:25:11;;;;;;;35.03;23.35;;;;;;;11.49;75.42;100102.91;4912068;29;20510;-74
2022/10/15 05:27:37;;;;;;;35.70;23.48;;;;;;;11.51;75.38;100108.94;4913427;29;20048;-74
2022/10/15 05:30:04;;;;;;;33.65;23.73;;;;;;;11.54;75.39;100110.41;4913669;29;20052;-74
2022/10/15 05:32:31;;;;;;;36.33;23.45;;;;;;;11.52;75.33;100117.81;4913908;29;20099;-74
2022/10/15 05:34:57;;;;;;;38.85;23.55;;;;;;;11.44;75.55;100113.34;4914092;29;20075;-72
2022/10/15 05:37:24;;;;;;;37.30;23.45;;;;;;;11.34;75.45;100105.53;4914040;29;20075;-73
2022/10/15 05:39:51;;;;;;;39.03;23.25;;;;;;;11.42;75.70;100113.53;4913412;29;20056;-74
2022/10/15 05:42:17;;;;;;;33.55;22.63;;;;;;;11.37;76.00;100120.47;4913056;29;20052;-74
2022/10/15 05:44:44;;;;;;;32.88;23.40;;;;;;;11.45;75.49;100123.09;4913421;29;20416;-74
2022/10/15 05:47:11;;;;;;;37.15;24.13;;;;;;;11.52;75.31;100126.72;4913049;29;20048;-73
2022/10/15 05:49:37;;;;;;;34.55;23.10;;;;;;;11.60;75.09;100131.19;4912699;29;20408;-73
2022/10/15 05:52:04;;;;;;;31.85;21.88;;;;;;;11.45;74.81;100126.63;4914187;29;20056;-73
2022/10/15 05:54:31;;;;;;;36.10;22.38;;;;;;;11.49;75.19;100126.25;4912969;29;20052;-73
2022/10/15 05:56:57;;;;;;;32.53;22.63;;;;;;;11.54;75.06;100134.59;4913682;29;20052;-73
2022/10/15 05:59:24;;;;;;;29.00;22.40;;;;;;;11.48;75.21;100132.63;4912683;29;20059;-73
2022/10/15 06:01:50;;;;;;;29.85;22.00;;;;;;;11.54;74.84;100131.91;4913451;29;20056;-74
2022/10/15 06:04:17;;;;;;;34.35;23.00;;;;;;;11.66;74.61;100146.63;4913778;29;20062;-73
2022/10/15 06:06:43;;;;;;;35.25;22.23;;;;;;;11.56;74.38;100146.00;4912598;29;20045;-73
2022/10/15 06:09:09;;;;;;;36.03;22.13;;;;;;;11.39;74.96;100148.81;4876262;29;20101;-73
2022/10/15 06:11:36;;;;;;;34.17;23.15;;;;;;;11.42;75.13;100145.78;4874692;29;20443;-73
2022/10/15 06:14:02;;;;;;;35.08;23.65;;;;;;;11.61;74.33;100148.97;4875314;29;20458;-73
2022/10/15 06:16:29;;;;;;;35.30;23.17;;;;;;;11.55;74.44;100152.38;4876063;29;20049;-74
2022/10/15 06:18:55;;;;;;;38.20;24.63;;;;;;;11.61;74.15;100149.81;4875082;29;20052;-74
2022/10/15 06:21:22;;;;;;;39.15;23.80;;;;;;;11.43;74.72;100155.50;4869551;29;20064;-71
2022/10/15 06:23:48;;;;;;;31.33;22.45;;;;;;;11.65;74.53;100155.66;4882805;29;20052;-73
2022/10/15 06:26:15;;;;;;;30.73;23.00;;;;;;;11.60;74.35;100160.75;4874342;29;20060;-74
2022/10/15 06:28:42;;;;;;;42.83;23.80;;;;;;;11.66;74.42;100162.75;4872367;29;20056;-74
2022/10/15 06:31:08;;;;;;;35.22;23.50;;;;;;;11.65;74.25;100161.03;4875715;29;20057;-73
2022/10/15 06:33:34;;;;;;;33.28;22.35;;;;;;;11.50;75.09;100152.94;4874770;29;20049;-74
2022/10/15 06:36:03;;;;;;;33.42;23.60;;;;;;;11.64;74.76;100152.13;4873492;29;20517;-74
2022/10/15 06:38:30;;;;;;;43.22;23.83;;;;;;;11.86;74.13;100155.84;4878803;29;20048;-75
2022/10/15 06:40:57;;;;;;;31.65;22.33;;;;;;;11.94;73.87;100163.00;4879641;29;20053;-73
2022/10/15 06:43:23;;;;;;;48.83;29.83;;;;;;;12.10;73.03;100170.06;4878652;29;20045;-74
2022/10/15 06:45:50;;;;;;;42.05;25.45;;;;;;;11.86;73.52;100173.81;4878904;29;20101;-73
2022/10/15 06:48:17;;;;;;;38.40;23.33;;;;;;;12.04;73.35;100178.88;4879130;29;20056;-73
2022/10/15 06:50:44;;;;;;;34.22;22.10;;;;;;;11.81;73.70;100184.28;4878378;29;20056;-73
2022/10/15 06:53:10;;;;;;;34.72;23.80;;;;;;;11.74;74.01;100184.16;4879347;29;20057;-74
2022/10/15 06:55:38;;;;;;;33.67;22.45;;;;;;;11.68;74.67;100176.81;4877590;29;20451;-74
2022/10/15 06:58:05;;;;;;;34.53;21.92;;;;;;;11.95;73.64;100185.34;4878254;29;20139;-74
2022/10/15 07:00:31;;;;;;;31.45;22.95;;;;;;;11.89;73.59;100192.25;4878759;29;20056;-73
2022/10/15 07:03:05;;;;;;;35.20;21.65;;;;;;;12.03;73.15;100196.00;4879661;29;20049;-72
2022/10/15 07:05:33;;;;;;;29.52;21.73;;;;;;;12.10;73.61;100202.31;4879510;29;20056;-74
2022/10/15 07:08:00;;;;;;;27.63;20.95;;;;;;;12.10;73.45;100207.69;4897786;29;20055;-72
2022/10/15 07:10:27;;;;;;;30.42;19.90;;;;;;;12.08;73.45;100215.13;4916563;29;20385;-72
2022/10/15 07:12:54;;;;;;;29.35;20.00;;;;;;;12.20;73.30;100213.66;4905933;29;20051;-74
2022/10/15 07:15:21;;;;;;;29.77;18.75;;;;;;;12.26;72.49;100221.00;4914976;29;20052;-74
2022/10/15 07:17:48;;;;;;;32.15;18.83;;;;;;;12.36;72.49;100226.94;4915229;29;20130;-75
2022/10/15 07:20:15;;;;;;;28.20;19.20;;;;;;;12.58;72.10;100221.66;4915384;29;20052;-73
2022/10/15 07:22:48;;;;;;;27.23;17.90;;;;;;;12.64;71.89;100229.00;4904636;29;20052;-73
2022/10/15 07:25:15;;;;;;;26.58;18.23;;;;;;;13.11;70.59;100216.97;4915834;29;20056;-74
2022/10/15 07:27:41;;;;;;;23.25;16.88;;;;;;;13.32;70.24;100213.50;4915381;29;20484;-74
2022/10/15 07:30:08;;;;;;;22.27;16.65;;;;;;;13.10;70.04;100213.44;4915327;29;20075;-73
2022/10/15 07:32:35;;;;;;;19.48;15.10;;;;;;;13.55;69.03;100200.69;4915526;29;20059;-72
2022/10/15 07:35:02;;;;;;;23.73;15.15;;;;;;;13.93;67.78;100205.81;4916404;29;20086;-75
2022/10/15 07:37:30;;;;;;;21.85;14.45;;;;;;;14.09;67.37;100204.72;4899062;29;20132;-72
2022/10/15 07:39:56;;;;;;;19.83;13.60;;;;;;;14.57;65.01;100206.69;4915347;29;20059;-72
2022/10/15 07:42:23;;;;;;;15.93;12.60;;;;;;;14.93;63.84;100207.31;4915462;29;20059;-74
2022/10/15 07:44:49;;;;;;;18.20;13.10;;;;;;;14.67;64.18;100208.00;4915889;29;20523;-73
2022/10/15 07:47:16;;;;;;;20.10;12.05;;;;;;;15.40;62.60;100208.31;4915467;29;20059;-74
2022/10/15 07:49:42;;;;;;;17.27;11.05;;;;;;;16.02;60.35;100206.31;4914158;29;20051;-74
2022/10/15 07:52:09;;;;;;;14.48;10.50;;;;;;;15.53;61.27;100201.25;4914266;29;20048;-72
2022/10/15 07:54:35;;;;;;;15.43;11.55;;;;;;;15.80;60.66;100210.25;4915008;29;20480;-74
2022/10/15 07:57:02;;;;;;;14.20;10.57;;;;;;;15.92;59.91;100208.59;4916136;29;20051;-73
2022/10/15 07:59:29;;;;;;;13.88;9.27;;;;;;;15.90;60.72;100207.97;4915078;29;20552;-73
2022/10/15 08:01:55;;;;;;;16.10;9.30;;;;;;;16.15;59.61;100217.09;4914856;29;20404;-74
2022/10/15 08:04:22;;;;;;;13.30;9.43;;;;;;;16.57;58.32;100212.28;4903073;29;20044;-72
2022/10/15 08:06:48;;;;;;;11.15;9.13;;;;;;;17.01;57.12;100199.84;4889393;29;20461;-73
2022/10/15 08:09:15;;;;;;;14.30;8.63;;;;;;;17.43;55.48;100208.41;4915455;29;20048;-72
2022/10/15 08:11:42;;;;;;;17.13;9.57;;;;;;;17.32;55.49;100204.47;4914938;29;20051;-73
2022/10/15 08:14:09;;;;;;;15.57;8.65;;;;;;;17.44;55.58;100215.53;4915716;29;20052;-71
2022/10/15 08:16:35;;;;;;;12.45;9.38;;;;;;;16.99;56.57;100212.81;4915621;29;20044;-73
2022/10/15 08:19:02;;;;;;;11.55;8.35;;;;;;;17.05;56.43;100213.78;4915488;29;20051;-72
2022/10/15 08:21:28;;;;;;;9.73;7.72;;;;;;;17.42;55.46;100214.91;4915073;29;20132;-73
2022/10/15 08:23:55;;;;;;;10.68;7.95;;;;;;;16.84;56.66;100214.94;4914369;29;20059;-74
2022/10/15 08:26:21;;;;;;;12.57;8.27;;;;;;;16.84;57.20;100220.34;4914297;29;20051;-73
2022/10/15 08:28:49;;;;;;;11.30;8.30;;;;;;;16.93;56.75;100224.50;4914143;29;20055;-72
2022/10/15 08:31:18;;;;;;;9.15;7.68;;;;;;;17.68;54.98;100221.19;4915241;29;20044;-72
2022/10/15 08:33:45;;;;;;;11.52;7.13;;;;;;;18.01;53.30;100227.19;4914426;29;20153;-72
2022/10/15 08:36:11;;;;;;;8.93;7.40;;;;;;;18.94;51.18;100220.06;4914359;29;20052;-72
2022/10/15 08:38:38;;;;;;;10.82;7.50;;;;;;;19.34;49.84;100216.81;4915678;29;20058;-72
2022/10/15 08:41:18;;;;;;;12.55;7.38;;;;;;;19.88;48.53;100218.56;4915085;29;20048;-72
2022/10/15 08:43:46;;;;;;;8.85;6.82;;;;;;;20.70;46.57;100228.66;4914793;29;20052;-70
2022/10/15 08:46:19;;;;;;;11.98;7.93;;;;;;;20.82;46.33;100231.38;4914356;29;20059;-73
2022/10/15 08:48:54;;;;;;;7.88;7.07;;;;;;;20.71;45.61;100230.31;4914579;29;20044;-71
2022/10/15 08:51:24;;;;;;;11.98;7.53;;;;;;;20.59;46.49;100226.75;4913971;29;20488;-73
2022/10/15 08:54:01;;;;;;;10.18;7.15;;;;;;;19.96;47.14;100228.25;4913546;29;20043;-73
2022/10/15 08:56:35;;;;;;;9.45;7.43;;;;;;;20.19;46.91;100233.75;4914176;29;20045;-72
2022/10/15 08:59:11;;;;;;;10.73;6.90;;;;;;;20.36;46.19;100233.03;4913586;29;20044;-71
2022/10/15 09:01:48;;;;;;;10.82;7.00;;;;;;;19.67;47.80;100235.41;4913193;29;20048;-73
2022/10/15 09:04:19;;;;;;;9.90;5.88;;;;;;;19.39;48.72;100236.84;4913031;29;20068;-75
2022/10/15 09:06:52;;;;;;;12.43;6.70;;;;;;;19.08;49.28;100242.47;4913808;29;20053;-72
2022/10/15 09:09:47;;;;;;;8.75;5.97;;;;;;;19.04;49.30;100239.41;4910298;29;20044;-77
2022/10/15 09:12:46;;;;;;;6.70;5.32;;;;;;;18.89;49.48;100239.72;4913245;29;20055;-77
2022/10/15 09:15:16;;;;;;;12.35;6.00;;;;;;;18.73;49.92;100240.34;4912643;29;20048;-78
2022/10/15 09:17:45;;;;;;;7.00;6.10;;;;;;;18.54;50.22;100234.06;4913773;29;20047;-77
2022/10/15 09:20:17;;;;;;;9.43;6.50;;;;;;;18.03;51.64;100241.41;4913423;29;20100;-76
2022/10/15 09:22:48;;;;;;;15.93;7.80;;;;;;;18.10;51.82;100246.78;4903485;29;20096;-76
2022/10/15 09:25:17;;;;;;;10.77;7.17;;;;;;;18.14;51.60;100241.72;4911329;29;20516;-76
2022/10/15 09:27:46;;;;;;;11.30;6.03;;;;;;;18.16;51.45;100239.63;4913677;29;20048;-76
2022/10/15 09:30:49;;;;;;;11.35;6.53;;;;;;;18.41;51.21;100239.63;4912438;29;20044;-75
2022/10/15 09:33:35;;;;;;;12.73;6.45;;;;;;;18.53;51.05;100240.56;4912116;29;20107;-76
2022/10/15 09:36:07;;;;;;;11.63;7.50;;;;;;;18.78;50.56;100243.19;4913023;29;20408;-76
2022/10/15 09:38:53;;;;;;;10.85;6.15;;;;;;;19.07;49.86;100243.53;4913754;29;20047;-78
2022/10/15 09:41:38;;;;;;;9.25;6.13;;;;;;;19.63;48.28;100240.47;4913385;29;20044;-77
2022/10/15 09:44:12;;;;;;;5.88;5.03;;;;;;;20.44;46.60;100241.72;4912621;29;20048;-78
2022/10/15 09:46:46;;;;;;;6.18;5.18;;;;;;;19.75;47.61;100243.25;4914053;29;20056;-77
2022/10/15 09:49:26;;;;;;;7.18;4.68;;;;;;;19.34;48.34;100247.56;4913165;29;20059;-75
2022/10/15 09:52:13;;;;;;;7.47;5.30;;;;;;;18.82;49.44;100247.13;4913011;29;20048;-77
2022/10/15 09:55:04;;;;;;;10.98;6.15;;;;;;;18.81;49.71;100245.47;4913054;29;20059;-78
2022/10/15 09:57:34;;;;;;;13.02;5.30;;;;;;;18.67;50.33;100243.97;4913534;29;20048;-77
2022/10/15 10:00:04;;;;;;;8.82;6.00;;;;;;;17.84;52.10;100247.78;4912994;29;20076;-76
2022/10/15 10:02:30;;;;;;;11.45;5.22;;;;;;;17.85;51.95;100246.72;4913453;29;20054;-77
2022/10/15 10:05:19;;;;;;;9.32;5.43;;;;;;;17.99;51.99;100255.59;4912623;29;20052;-77
2022/10/15 10:07:45;;;;;;;9.65;5.05;;;;;;;17.79;52.63;100253.88;4913562;29;20059;-78
2022/10/15 10:10:24;;;;;;;10.57;6.22;;;;;;;17.58;53.00;100257.78;4912718;29;20407;-77
2022/10/15 10:12:51;;;;;;;9.05;5.22;;;;;;;17.52;53.12;100261.34;4914917;29;20044;-76
2022/10/15 10:15:20;;;;;;;9.32;6.22;;;;;;;16.95;54.24;100265.72;4916682;29;20044;-79
2022/10/15 10:17:54;;;;;;;9.13;6.35;;;;;;;17.02;54.32;100261.13;4916647;29;20055;-79
2022/10/15 10:20:29;;;;;;;10.60;6.25;;;;;;;17.60;53.32;100268.41;4916704;29;20461;-78
2022/10/15 10:23:01;;;;;;;9.00;5.78;;;;;;;17.28;53.84;100259.38;4916731;29;20453;-77
2022/10/15 10:25:28;;;;;;;8.68;5.72;;;;;;;17.81;52.82;100267.22;4917057;29;20044;-78
2022/10/15 10:27:57;;;;;;;9.30;4.70;;;;;;;18.27;51.22;100257.91;4916918;29;20064;-78
2022/10/15 10:30:24;;;;;;;6.50;4.78;;;;;;;18.50;50.74;100263.56;4916163;29;20527;-76
2022/10/15 10:32:57;;;;;;;8.25;5.57;;;;;;;18.62;50.32;100260.94;4916914;29;20504;-78
2022/10/15 10:35:29;;;;;;;10.35;5.70;;;;;;;18.41;50.53;100259.47;4916716;29;20523;-78
2022/10/15 10:37:56;;;;;;;5.80;5.18;;;;;;;18.40;50.88;100260.50;4916396;29;20052;-71
2022/10/15 10:40:25;;;;;;;12.13;5.82;;;;;;;18.58;50.99;100259.72;4906706;29;20044;-72
2022/10/15 10:43:15;;;;;;;8.77;5.63;;;;;;;18.12;51.97;100257.41;4914945;29;20420;-73
2022/10/15 10:46:13;;;;;;;7.50;5.40;;;;;;;18.19;51.96;100263.63;4907368;29;20052;-72
2022/10/15 10:48:43;;;;;;;9.68;5.90;;;;;;;18.32;51.80;100266.25;4891418;29;20055;-73
2022/10/15 10:51:14;;;;;;;7.10;5.70;;;;;;;17.95;52.65;100266.06;4917230;29;20052;-73
2022/10/15 10:53:55;;;;;;;9.90;7.85;;;;;;;18.18;52.23;100270.13;4916407;29;20496;-73
2022/10/15 10:56:26;;;;;;;9.77;5.70;;;;;;;17.97;53.06;100263.16;4916406;29;20044;-73
2022/10/15 10:59:01;;;;;;;8.55;5.25;;;;;;;17.90;53.21;100273.22;4915439;29;20052;-73
2022/10/15 11:01:28;;;;;;;11.48;5.70;;;;;;;17.99;52.76;100264.56;4915969;29;20052;-73
2022/10/15 11:03:55;;;;;;;8.82;6.05;;;;;;;17.79;53.71;100266.63;4915546;29;20423;-72
2022/10/15 11:06:33;;;;;;;11.27;6.93;;;;;;;17.54;54.08;100263.84;4915537;29;20048;-72
2022/10/15 11:09:03;;;;;;;10.15;6.18;;;;;;;17.34;54.29;100264.78;4915385;29;20420;-72
2022/10/15 11:11:37;;;;;;;10.07;6.45;;;;;;;17.66;53.96;100262.09;4905781;29;20055;-72
2022/10/15 11:14:37;;;;;;;8.82;6.68;;;;;;;17.08;54.99;100256.72;4915892;29;20063;-73
2022/10/15 11:17:21;;;;;;;7.60;5.72;;;;;;;17.14;55.04;100269.44;4906461;29;20052;-74
2022/10/15 11:19:48;;;;;;;12.65;7.40;;;;;;;17.13;55.05;100271.31;4915264;29;20071;-73
2022/10/15 11:22:49;;;;;;;15.15;7.53;;;;;;;17.12;54.73;100261.50;4915300;29;20107;-72
2022/10/15 11:25:27;;;;;;;11.90;6.55;;;;;;;17.75;53.33;100266.25;4897285;29;20048;-73
2022/10/15 11:27:54;;;;;;;9.40;6.60;;;;;;;18.34;51.88;100258.69;4916045;29;20052;-72
2022/10/15 11:30:40;;;;;;;8.90;5.30;;;;;;;19.02;49.82;100252.38;4915244;29;20052;-73